Time;durP1;ratioP1;P1;durP2;ratioP2;P2;SDS_P1;SDS_P2;PMS_P1;PMS_P2;Temp;Humidity;BMP_temperature;BMP_pressure;BME280_temperature;BME280_humidity;BME280_pressure;Samples;Min_cycle;Max_cycle;Signal;HPM_P1;HPM_P2
2022/10/17 00:01:06;;;;;;;5.15;2.70;;;10.80;99.90;;;;;;5018975;28;20365;-52
2022/10/17 00:03:33;;;;;;;5.45;2.50;;;10.80;99.90;;;;;;5019210;28;20447;-49
2022/10/17 00:06:03;;;;;;;5.93;2.75;;;10.80;99.90;;;;;;5019009;28;20064;-50
2022/10/17 00:08:29;;;;;;;8.40;2.65;;;10.80;99.90;;;;;;5016897;28;20040;-48
2022/10/17 00:11:04;;;;;;;6.70;2.65;;;10.80;99.90;;;;;;5017137;28;20038;-50
2022/10/17 00:13:30;;;;;;;8.63;3.17;;;10.80;99.90;;;;;;5015120;28;20037;-55
2022/10/17 00:15:56;;;;;;;5.38;2.58;;;10.90;99.90;;;;;;5017023;28;20181;-53
2022/10/17 00:18:22;;;;;;;6.45;2.88;;;10.90;99.90;;;;;;5018003;28;20392;-49
2022/10/17 00:20:48;;;;;;;5.60;3.75;;;10.80;99.90;;;;;;5021029;28;20108;-51
2022/10/17 00:23:14;;;;;;;6.45;3.03;;;10.80;99.90;;;;;;5020472;28;20356;-52
2022/10/17 00:25:39;;;;;;;4.63;2.30;;;10.90;99.90;;;;;;5020573;28;20037;-50
2022/10/17 00:28:07;;;;;;;7.03;3.38;;;10.90;99.90;;;;;;5017578;28;20049;-52
2022/10/17 00:30:33;;;;;;;8.48;3.70;;;10.90;99.90;;;;;;5017451;28;20109;-53
2022/10/17 00:32:58;;;;;;;4.35;2.80;;;10.80;99.90;;;;;;5017899;28;20076;-51
2022/10/17 00:35:24;;;;;;;6.80;3.13;;;10.80;99.90;;;;;;5007466;28;20022;-48
2022/10/17 00:37:49;;;;;;;3.15;2.47;;;10.80;99.90;;;;;;5019925;28;20040;-49
2022/10/17 00:40:15;;;;;;;7.85;2.45;;;10.90;99.90;;;;;;5017702;28;20412;-49
2022/10/17 00:42:40;;;;;;;4.75;2.45;;;10.90;99.90;;;;;;5007869;28;20030;-51
2022/10/17 00:45:20;;;;;;;4.63;2.95;;;10.90;99.90;;;;;;5017106;28;20041;-48
2022/10/17 00:47:59;;;;;;;6.85;2.72;;;10.90;99.90;;;;;;5021132;28;20065;-53
2022/10/17 00:50:25;;;;;;;6.13;2.90;;;10.90;99.90;;;;;;5014908;28;20456;-52
2022/10/17 00:52:53;;;;;;;6.45;3.45;;;10.90;99.90;;;;;;5017647;28;20026;-51
2022/10/17 00:55:29;;;;;;;4.65;2.33;;;10.90;99.90;;;;;;5013915;28;20041;-48
2022/10/17 00:57:57;;;;;;;5.22;2.53;;;10.90;99.90;;;;;;5018926;28;20076;-52
2022/10/17 01:00:23;;;;;;;3.42;2.55;;;10.90;99.90;;;;;;5019072;28;20396;-51
2022/10/17 01:02:49;;;;;;;8.85;3.05;;;11.00;99.90;;;;;;5011395;28;20025;-49
2022/10/17 01:05:15;;;;;;;3.90;2.80;;;11.00;99.90;;;;;;5018610;28;20391;-48
2022/10/17 01:07:42;;;;;;;4.75;2.70;;;11.00;99.90;;;;;;5012644;28;20072;-50
2022/10/17 01:10:09;;;;;;;7.72;2.63;;;10.90;99.90;;;;;;5018972;28;20053;-51
2022/10/17 01:12:53;;;;;;;11.98;2.95;;;11.00;99.90;;;;;;5021582;28;20021;-53
2022/10/17 01:15:42;;;;;;;6.78;2.33;;;11.00;99.90;;;;;;5015551;28;20022;-48
2022/10/17 01:18:26;;;;;;;6.68;2.75;;;11.00;99.90;;;;;;5021295;28;20026;-50
2022/10/17 01:21:07;;;;;;;3.00;2.40;;;11.00;99.90;;;;;;5023205;28;20506;-53
2022/10/17 01:23:51;;;;;;;6.38;3.03;;;11.00;99.90;;;;;;5022560;28;20143;-54
2022/10/17 01:26:22;;;;;;;5.43;2.83;;;11.00;99.90;;;;;;5010499;23;20046;-51
2022/10/17 01:29:12;;;;;;;4.82;2.80;;;11.00;99.90;;;;;;4987656;28;20085;-54
2022/10/17 01:31:46;;;;;;;5.85;2.60;;;11.00;99.90;;;;;;4981704;28;20471;-51
2022/10/17 01:34:19;;;;;;;3.42;2.25;;;11.00;99.90;;;;;;4985837;28;20018;-52
2022/10/17 01:36:59;;;;;;;4.15;3.00;;;11.00;99.90;;;;;;4983712;28;20389;-53
2022/10/17 01:39:46;;;;;;;5.22;2.35;;;11.00;99.90;;;;;;4973685;28;20027;-55
2022/10/17 01:42:15;;;;;;;5.97;2.60;;;11.00;99.90;;;;;;4984259;28;20045;-52
2022/10/17 01:45:02;;;;;;;6.43;3.45;;;11.10;99.90;;;;;;4984979;28;20068;-55
2022/10/17 01:47:31;;;;;;;8.00;3.03;;;11.00;99.90;;;;;;4976601;28;20441;-54
2022/10/17 01:50:06;;;;;;;7.25;3.63;;;11.10;99.90;;;;;;4980585;28;20023;-56
2022/10/17 01:52:49;;;;;;;6.47;3.30;;;11.10;99.90;;;;;;4969217;28;20437;-50
2022/10/17 01:55:20;;;;;;;11.13;3.88;;;11.10;99.90;;;;;;4971290;28;20133;-53
2022/10/17 01:57:52;;;;;;;6.18;2.50;;;11.10;99.90;;;;;;4974106;28;20023;-51
2022/10/17 02:00:21;;;;;;;4.78;2.75;;;11.10;99.90;;;;;;4970518;28;20030;-53
2022/10/17 02:02:52;;;;;;;6.15;2.80;;;11.20;99.90;;;;;;4981812;28;20058;-56
2022/10/17 02:05:23;;;;;;;4.30;2.72;;;11.10;99.90;;;;;;4978654;28;20035;-55
2022/10/17 02:07:48;;;;;;;6.60;2.55;;;11.20;99.90;;;;;;4978628;28;20035;-53
2022/10/17 02:10:49;;;;;;;4.07;2.45;;;11.20;99.90;;;;;;4974138;28;20030;-55
2022/10/17 02:13:32;;;;;;;6.20;2.47;;;11.20;99.90;;;;;;4979075;28;20568;-53
2022/10/17 02:16:09;;;;;;;14.40;2.55;;;11.20;99.90;;;;;;4983098;28;20029;-52
2022/10/17 02:18:41;;;;;;;4.10;2.58;;;11.20;99.90;;;;;;4967177;28;20397;-51
2022/10/17 02:21:29;;;;;;;8.57;3.13;;;11.20;99.90;;;;;;4987493;28;20027;-52
2022/10/17 02:24:04;;;;;;;6.68;2.85;;;11.20;99.90;;;;;;4977484;28;20041;-52
2022/10/17 02:26:53;;;;;;;7.95;3.20;;;11.20;99.90;;;;;;4980531;28;20038;-56
2022/10/17 02:29:24;;;;;;;6.70;2.53;;;11.20;99.90;;;;;;4965429;28;20054;-54
2022/10/17 02:32:09;;;;;;;4.97;2.83;;;11.30;99.90;;;;;;4977010;28;20037;-54
2022/10/17 02:34:43;;;;;;;7.50;2.38;;;11.30;99.90;;;;;;4980123;28;20041;-51
2022/10/17 02:37:12;;;;;;;6.85;3.55;;;11.30;99.90;;;;;;4982561;28;20049;-52
2022/10/17 02:39:39;;;;;;;15.43;3.28;;;11.30;99.90;;;;;;4981483;28;20029;-57
2022/10/17 02:42:10;;;;;;;2.90;2.67;;;11.30;99.90;;;;;;4982875;28;20497;-54
2022/10/17 02:44:38;;;;;;;8.45;3.35;;;11.30;99.90;;;;;;4972973;28;20035;-55
2022/10/17 02:47:29;;;;;;;3.97;3.13;;;11.30;99.90;;;;;;4977247;28;20027;-51
2022/10/17 02:49:57;;;;;;;5.78;2.90;;;11.30;99.90;;;;;;4978433;28;20034;-53
2022/10/17 02:52:37;;;;;;;5.45;2.72;;;11.40;99.90;;;;;;4979194;28;20440;-54
2022/10/17 02:55:19;;;;;;;5.45;3.53;;;11.40;99.90;;;;;;4981676;28;20057;-53
2022/10/17 02:57:49;;;;;;;6.32;2.50;;;11.40;99.90;;;;;;4970998;28;20046;-54
2022/10/17 03:00:17;;;;;;;4.57;2.97;;;11.40;99.90;;;;;;4974248;28;20117;-52
2022/10/17 03:02:48;;;;;;;2.80;2.22;;;11.50;99.90;;;;;;4979805;28;20027;-53
2022/10/17 03:05:23;;;;;;;3.72;3.00;;;11.50;99.90;;;;;;4986316;28;20434;-55
2022/10/17 03:07:49;;;;;;;3.65;2.65;;;11.60;99.90;;;;;;4980309;28;20035;-52
2022/10/17 03:10:15;;;;;;;5.13;2.60;;;11.60;99.90;;;;;;4984941;28;20534;-54
2022/10/17 03:12:40;;;;;;;3.65;2.30;;;11.60;99.90;;;;;;4977828;28;20050;-53
2022/10/17 03:15:06;;;;;;;3.20;2.65;;;11.60;99.90;;;;;;4982195;28;20030;-50
2022/10/17 03:17:32;;;;;;;4.82;3.00;;;11.60;99.90;;;;;;4981363;28;20034;-54
2022/10/17 03:19:58;;;;;;;4.97;2.75;;;11.70;99.90;;;;;;4980556;28;20372;-55
2022/10/17 03:22:23;;;;;;;13.02;2.95;;;11.70;99.90;;;;;;4983529;28;20042;-51
2022/10/17 03:24:49;;;;;;;4.00;2.67;;;11.70;99.90;;;;;;4975654;28;20031;-53
2022/10/17 03:27:15;;;;;;;3.83;2.67;;;11.70;99.90;;;;;;4977801;28;20441;-53
2022/10/17 03:29:40;;;;;;;7.00;3.00;;;11.70;99.90;;;;;;4981934;28;20027;-52
2022/10/17 03:32:06;;;;;;;5.47;3.20;;;11.80;99.90;;;;;;4981745;28;20175;-55
2022/10/17 03:34:31;;;;;;;4.03;2.35;;;11.80;99.90;;;;;;4983889;28;20540;-50
2022/10/17 03:36:57;;;;;;;4.20;2.53;;;11.80;99.90;;;;;;4980791;28;20027;-52
2022/10/17 03:39:23;;;;;;;5.85;2.72;;;11.90;99.90;;;;;;5001205;28;20026;-51
2022/10/17 03:41:48;;;;;;;5.32;2.30;;;11.90;99.90;;;;;;4979564;28;20026;-54
2022/10/17 03:44:14;;;;;;;4.43;2.40;;;11.90;99.90;;;;;;4982901;28;20449;-55
2022/10/17 03:46:40;;;;;;;6.65;2.90;;;11.90;99.90;;;;;;4982150;28;20437;-53
2022/10/17 03:49:08;;;;;;;3.15;2.13;;;11.90;99.90;;;;;;4986490;28;20077;-50
2022/10/17 03:51:34;;;;;;;3.92;2.30;;;11.90;99.90;;;;;;4979241;28;20023;-53
2022/10/17 03:54:00;;;;;;;2.90;2.00;;;11.90;99.90;;;;;;4979536;28;20078;-52
2022/10/17 03:56:26;;;;;;;2.72;2.33;;;11.90;99.90;;;;;;4986169;28;20026;-50
2022/10/17 03:58:53;;;;;;;2.47;2.28;;;11.90;99.90;;;;;;4979610;28;20015;-53
2022/10/17 04:01:20;;;;;;;4.85;2.58;;;11.90;99.90;;;;;;4981854;28;20018;-53
2022/10/17 04:03:54;;;;;;;2.55;2.20;;;11.90;99.90;;;;;;4980072;28;20033;-54
2022/10/17 04:06:21;;;;;;;2.30;2.00;;;11.90;99.90;;;;;;4969405;28;20041;-55
2022/10/17 04:08:47;;;;;;;3.05;2.20;;;11.90;99.90;;;;;;4978483;28;20033;-50
2022/10/17 04:11:16;;;;;;;2.95;2.10;;;11.90;99.90;;;;;;4981009;28;20018;-53
2022/10/17 04:13:41;;;;;;;3.97;2.20;;;11.90;99.90;;;;;;4982117;28;20029;-53
2022/10/17 04:16:11;;;;;;;2.78;2.08;;;11.90;99.90;;;;;;4982676;28;20030;-53
2022/10/17 04:18:36;;;;;;;2.90;2.00;;;11.90;99.90;;;;;;4980700;28;20398;-52
2022/10/17 04:21:04;;;;;;;1.92;1.83;;;11.90;99.90;;;;;;4979184;28;20037;-50
2022/10/17 04:23:30;;;;;;;3.92;2.17;;;11.90;99.90;;;;;;4978818;28;20109;-53
2022/10/17 04:25:59;;;;;;;2.38;2.00;;;11.90;99.90;;;;;;4979635;28;20453;-51
2022/10/17 04:28:26;;;;;;;4.43;2.30;;;11.90;99.90;;;;;;4977649;28;20310;-53
2022/10/17 04:30:59;;;;;;;3.53;2.15;;;11.80;99.90;;;;;;4996564;28;20393;-56
2022/10/17 04:33:25;;;;;;;2.08;1.98;;;11.80;99.90;;;;;;4976222;28;20019;-52
2022/10/17 04:35:58;;;;;;;4.75;2.28;;;11.80;99.90;;;;;;4981895;28;20026;-53
2022/10/17 04:38:24;;;;;;;2.10;1.90;;;11.80;99.90;;;;;;4980585;28;20068;-52
2022/10/17 04:40:49;;;;;;;2.83;2.22;;;11.80;99.90;;;;;;4980484;28;20393;-52
2022/10/17 04:43:15;;;;;;;2.20;2.03;;;11.80;99.90;;;;;;4978352;28;20043;-53
2022/10/17 04:45:40;;;;;;;2.85;2.15;;;11.80;99.90;;;;;;4979176;28;20088;-54
2022/10/17 04:48:06;;;;;;;5.95;2.55;;;11.80;99.90;;;;;;4979232;28;20027;-51
2022/10/17 04:50:31;;;;;;;5.80;2.47;;;11.80;99.90;;;;;;4978105;28;20084;-51
2022/10/17 04:52:58;;;;;;;3.35;2.42;;;11.70;99.90;;;;;;4980579;28;20049;-51
2022/10/17 04:55:23;;;;;;;3.47;2.30;;;11.70;99.90;;;;;;4980386;28;20022;-50
2022/10/17 04:57:49;;;;;;;2.20;2.00;;;11.70;99.90;;;;;;4981790;28;20026;-53
2022/10/17 05:00:14;;;;;;;9.82;2.47;;;11.70;99.90;;;;;;4978374;28;20106;-54
2022/10/17 05:02:40;;;;;;;2.20;2.00;;;11.70;99.90;;;;;;4979519;28;20640;-53
2022/10/17 05:05:06;;;;;;;3.00;2.35;;;11.70;99.90;;;;;;4982037;28;20061;-51
2022/10/17 05:07:31;;;;;;;6.20;2.20;;;11.60;99.90;;;;;;4982416;28;20031;-53
2022/10/17 05:09:57;;;;;;;7.85;2.78;;;11.60;99.90;;;;;;4975566;28;20081;-57
2022/10/17 05:12:23;;;;;;;6.70;2.28;;;11.60;99.90;;;;;;4977009;28;20022;-56
2022/10/17 05:14:49;;;;;;;2.60;2.20;;;11.60;99.90;;;;;;4981015;28;20022;-59
2022/10/17 05:17:14;;;;;;;2.25;1.83;;;11.60;99.90;;;;;;4977710;28;20093;-52
2022/10/17 05:19:40;;;;;;;4.22;1.98;;;11.60;99.90;;;;;;4979298;28;20387;-52
2022/10/17 05:22:06;;;;;;;4.63;1.85;;;11.60;99.90;;;;;;4976800;28;20030;-54
2022/10/17 05:24:31;;;;;;;3.80;2.42;;;11.60;99.90;;;;;;4978515;28;20035;-54
2022/10/17 05:26:57;;;;;;;5.63;2.65;;;11.60;99.90;;;;;;4975998;28;20035;-52
2022/10/17 05:29:22;;;;;;;4.80;2.10;;;11.60;99.90;;;;;;4980775;28;20026;-53
2022/10/17 05:31:48;;;;;;;2.53;2.33;;;11.50;99.90;;;;;;4977717;28;20154;-53
2022/10/17 05:34:13;;;;;;;4.25;1.92;;;11.50;99.90;;;;;;4974451;28;20034;-55
2022/10/17 05:36:39;;;;;;;3.35;2.75;;;11.50;99.90;;;;;;4978351;28;20426;-50
2022/10/17 05:39:04;;;;;;;1.88;1.77;;;11.50;99.90;;;;;;4980478;28;20100;-52
2022/10/17 05:41:30;;;;;;;2.92;2.15;;;11.50;99.90;;;;;;4981386;28;20126;-52
2022/10/17 05:43:55;;;;;;;2.22;2.00;;;11.50;99.90;;;;;;4980982;28;20027;-53
2022/10/17 05:46:21;;;;;;;3.13;2.00;;;11.50;99.90;;;;;;4986364;28;20162;-51
2022/10/17 05:48:46;;;;;;;3.28;2.35;;;11.50;99.90;;;;;;4981500;28;20034;-52
2022/10/17 05:51:12;;;;;;;3.25;2.25;;;11.50;99.90;;;;;;4987338;28;20489;-55
2022/10/17 05:53:39;;;;;;;3.65;2.22;;;11.40;99.90;;;;;;4980911;28;20039;-50
2022/10/17 05:56:08;;;;;;;2.72;2.20;;;11.40;99.90;;;;;;4981021;28;20023;-51
2022/10/17 05:58:34;;;;;;;2.65;2.45;;;11.40;99.90;;;;;;4980929;28;20295;-51
2022/10/17 06:01:02;;;;;;;6.03;2.40;;;11.40;99.90;;;;;;4982584;28;20494;-50
2022/10/17 06:03:28;;;;;;;5.53;2.50;;;11.40;99.90;;;;;;4984170;28;20050;-51
2022/10/17 06:05:54;;;;;;;4.78;2.45;;;11.40;99.90;;;;;;4982078;28;20030;-52
2022/10/17 06:08:20;;;;;;;2.75;2.40;;;11.40;99.90;;;;;;4976673;28;20034;-52
2022/10/17 06:10:50;;;;;;;5.05;2.60;;;11.40;99.90;;;;;;4979754;28;20023;-51
2022/10/17 06:13:16;;;;;;;5.75;2.45;;;11.40;99.90;;;;;;4969303;28;20397;-50
2022/10/17 06:15:42;;;;;;;3.03;2.50;;;11.40;99.90;;;;;;4974355;28;20461;-50
2022/10/17 06:18:08;;;;;;;2.63;2.20;;;11.40;99.90;;;;;;4983455;28;20097;-53
2022/10/17 06:20:34;;;;;;;4.03;2.17;;;11.40;99.90;;;;;;4984159;28;20484;-52
2022/10/17 06:23:00;;;;;;;4.35;2.20;;;11.40;99.90;;;;;;4980449;28;20125;-52
2022/10/17 06:25:25;;;;;;;3.53;2.25;;;11.40;99.90;;;;;;4984432;28;20041;-54
2022/10/17 06:27:51;;;;;;;2.70;2.50;;;11.40;99.90;;;;;;4980562;28;20040;-51
2022/10/17 06:30:16;;;;;;;6.05;2.47;;;11.40;99.90;;;;;;4984251;28;20485;-51
2022/10/17 06:32:42;;;;;;;3.28;2.42;;;11.40;99.90;;;;;;4983323;28;20014;-53
2022/10/17 06:35:08;;;;;;;2.47;2.17;;;11.40;99.90;;;;;;4983095;28;20050;-54
2022/10/17 06:37:34;;;;;;;4.97;2.95;;;11.40;99.90;;;;;;4984167;28;20034;-53
2022/10/17 06:39:59;;;;;;;4.55;2.50;;;11.40;99.90;;;;;;4983158;28;20027;-52
2022/10/17 06:42:25;;;;;;;4.15;2.97;;;11.50;99.90;;;;;;4983783;28;20049;-53
2022/10/17 06:44:50;;;;;;;3.95;3.03;;;11.50;99.90;;;;;;4981750;28;20049;-53
2022/10/17 06:47:16;;;;;;;4.05;2.72;;;11.50;99.90;;;;;;4983803;28;20370;-54
2022/10/17 06:49:41;;;;;;;3.25;2.38;;;11.50;99.90;;;;;;4983665;28;20428;-52
2022/10/17 06:52:08;;;;;;;7.80;2.70;;;11.60;99.90;;;;;;4983799;28;20718;-51
2022/10/17 06:54:34;;;;;;;4.88;2.20;;;11.60;99.90;;;;;;4979724;28;20019;-53
2022/10/17 06:56:59;;;;;;;3.17;2.88;;;11.60;99.90;;;;;;4982803;28;20158;-54
2022/10/17 06:59:25;;;;;;;2.78;2.40;;;11.70;99.90;;;;;;4979804;28;20110;-51
2022/10/17 07:01:50;;;;;;;4.78;2.80;;;11.70;99.90;;;;;;4981090;28;20177;-57
2022/10/17 07:04:16;;;;;;;4.05;3.13;;;11.70;99.90;;;;;;4986593;28;20022;-50
2022/10/17 07:06:42;;;;;;;3.33;3.03;;;11.80;99.90;;;;;;4983437;28;20022;-52
2022/10/17 07:09:08;;;;;;;11.30;2.92;;;11.80;99.90;;;;;;4985834;28;20039;-53
2022/10/17 07:11:34;;;;;;;6.95;2.60;;;11.90;99.90;;;;;;4980129;28;20034;-53
2022/10/17 07:14:00;;;;;;;4.93;2.25;;;11.90;99.90;;;;;;4983412;28;20023;-54
2022/10/17 07:16:26;;;;;;;4.05;2.78;;;12.00;99.90;;;;;;4983098;28;20034;-53
2022/10/17 07:18:53;;;;;;;3.65;2.40;;;12.00;99.90;;;;;;4981121;28;20038;-55
2022/10/17 07:21:19;;;;;;;4.65;2.58;;;12.10;99.90;;;;;;4983076;28;20048;-51
2022/10/17 07:23:45;;;;;;;5.07;2.90;;;12.20;99.90;;;;;;4982601;28;20462;-54
2022/10/17 07:26:13;;;;;;;4.25;2.80;;;12.30;99.90;;;;;;4980184;28;20116;-53
2022/10/17 07:28:40;;;;;;;5.35;3.25;;;12.30;99.90;;;;;;4981595;28;20034;-56
2022/10/17 07:31:12;;;;;;;3.20;2.67;;;12.40;99.90;;;;;;4980406;28;20022;-52
2022/10/17 07:33:37;;;;;;;3.17;2.97;;;12.40;99.90;;;;;;4979929;28;20031;-56
2022/10/17 07:36:04;;;;;;;6.65;2.35;;;12.50;99.90;;;;;;4981258;28;20027;-52
2022/10/17 07:38:30;;;;;;;8.48;3.10;;;12.60;99.90;;;;;;4979391;28;20036;-55
2022/10/17 07:40:57;;;;;;;9.43;3.08;;;12.70;99.90;;;;;;4982805;28;20481;-53
2022/10/17 07:43:24;;;;;;;4.57;2.97;;;12.80;99.90;;;;;;4979893;28;20031;-56
2022/10/17 07:45:50;;;;;;;4.07;2.78;;;12.90;99.90;;;;;;4984119;28;20352;-52
2022/10/17 07:48:16;;;;;;;6.13;3.05;;;12.90;99.90;;;;;;4979478;28;20085;-52
2022/10/17 07:50:41;;;;;;;3.45;2.75;;;13.00;99.90;;;;;;4985581;28;20030;-51
2022/10/17 07:53:07;;;;;;;6.57;2.60;;;13.10;99.90;;;;;;4979509;28;20041;-53
2022/10/17 07:55:32;;;;;;;4.30;2.95;;;13.20;99.90;;;;;;4983002;28;20504;-53
2022/10/17 07:57:59;;;;;;;4.97;2.50;;;13.20;99.90;;;;;;4984049;28;20479;-55
2022/10/17 08:00:25;;;;;;;5.20;3.10;;;13.30;99.90;;;;;;4978969;28;20524;-53
2022/10/17 08:02:51;;;;;;;7.70;3.65;;;13.40;99.90;;;;;;4985145;28;20022;-52
2022/10/17 08:05:16;;;;;;;3.53;2.83;;;13.50;99.90;;;;;;4978344;28;20038;-51
2022/10/17 08:07:42;;;;;;;5.97;3.17;;;13.60;99.90;;;;;;4979177;28;20070;-51
2022/10/17 08:10:10;;;;;;;3.78;2.88;;;13.70;99.90;;;;;;4979683;28;20026;-54
2022/10/17 08:12:35;;;;;;;3.33;2.92;;;13.80;99.90;;;;;;4978074;28;20061;-51
2022/10/17 08:15:01;;;;;;;3.55;2.72;;;13.90;99.90;;;;;;4978284;28;20099;-55
2022/10/17 08:17:26;;;;;;;4.25;2.50;;;14.00;99.90;;;;;;4976042;28;20023;-56
2022/10/17 08:19:52;;;;;;;3.63;3.00;;;14.10;99.90;;;;;;4971470;28;20041;-55
2022/10/17 08:22:17;;;;;;;6.25;2.97;;;14.10;99.90;;;;;;4981957;28;20127;-54
2022/10/17 08:24:45;;;;;;;2.95;2.50;;;14.20;99.90;;;;;;4977978;28;20074;-53
2022/10/17 08:27:12;;;;;;;2.92;2.58;;;14.20;99.90;;;;;;4974630;28;20065;-52
2022/10/17 08:29:39;;;;;;;3.28;2.67;;;14.30;99.90;;;;;;4981351;28;20504;-56
2022/10/17 08:32:06;;;;;;;2.88;2.67;;;14.30;99.90;;;;;;4972304;28;20034;-52
2022/10/17 08:34:32;;;;;;;5.22;2.90;;;14.40;99.90;;;;;;4980052;28;20018;-54
2022/10/17 08:36:57;;;;;;;3.17;2.90;;;14.50;99.90;;;;;;4980013;28;20089;-53
2022/10/17 08:39:23;;;;;;;5.03;3.10;;;14.60;99.90;;;;;;4984645;28;20090;-55
2022/10/17 08:41:53;;;;;;;4.40;2.80;;;14.80;99.90;;;;;;4977922;28;20038;-51
2022/10/17 08:44:27;;;;;;;3.55;2.75;;;14.90;99.90;;;;;;4968046;28;20097;-53
2022/10/17 08:46:57;;;;;;;2.50;2.30;;;14.90;99.90;;;;;;4979995;28;20026;-52
2022/10/17 08:49:33;;;;;;;2.85;2.35;;;15.00;99.90;;;;;;4981886;28;20413;-52
2022/10/17 08:52:14;;;;;;;3.17;2.97;;;15.10;99.90;;;;;;4979283;28;20039;-51
2022/10/17 08:54:41;;;;;;;3.03;2.45;;;15.20;99.90;;;;;;4979919;28;20106;-51
2022/10/17 08:57:15;;;;;;;4.55;2.90;;;15.30;99.90;;;;;;4981121;28;20131;-52
2022/10/17 08:59:43;;;;;;;4.32;2.80;;;15.40;99.90;;;;;;4983824;28;20053;-52
2022/10/17 09:02:35;;;;;;;3.28;2.53;;;15.40;99.90;;;;;;4979333;28;20030;-54
2022/10/17 09:05:25;;;;;;;4.53;3.17;;;15.50;99.90;;;;;;4972977;28;20532;-53
2022/10/17 09:08:23;;;;;;;3.60;2.63;;;15.60;99.90;;;;;;4983787;28;20457;-53
2022/10/17 09:11:02;;;;;;;3.30;2.85;;;15.70;99.90;;;;;;4975038;28;20081;-53
2022/10/17 09:13:51;;;;;;;5.10;3.00;;;15.70;99.90;;;;;;4982015;28;20482;-51
2022/10/17 09:16:43;;;;;;;3.00;2.60;;;15.80;99.90;;;;;;4974175;28;20030;-52
2022/10/17 09:19:19;;;;;;;3.65;2.70;;;15.90;99.90;;;;;;4982476;28;20043;-53
2022/10/17 09:22:09;;;;;;;7.25;2.92;;;16.00;99.90;;;;;;4984747;28;20125;-54
2022/10/17 09:24:48;;;;;;;3.47;2.38;;;16.00;99.90;;;;;;4981803;28;20037;-55
2022/10/17 09:27:45;;;;;;;3.70;2.55;;;16.10;99.90;;;;;;4977395;28;20388;-51
2022/10/17 09:30:49;;;;;;;6.38;2.67;;;16.10;99.90;;;;;;4981055;28;20051;-54
2022/10/17 09:33:17;;;;;;;4.25;2.20;;;16.20;99.90;;;;;;4950314;28;20351;-55
2022/10/17 09:35:43;;;;;;;4.97;3.00;;;16.30;99.90;;;;;;4974039;28;20030;-50
2022/10/17 09:38:25;;;;;;;2.83;2.55;;;16.30;99.90;;;;;;4979171;28;20038;-51
2022/10/17 09:40:56;;;;;;;2.78;2.47;;;16.40;99.90;;;;;;4988179;28;20030;-55
2022/10/17 09:43:23;;;;;;;3.47;2.47;;;16.50;99.90;;;;;;4981033;28;20026;-53
2022/10/17 09:46:15;;;;;;;4.32;3.15;;;16.60;99.90;;;;;;4987335;28;20581;-53
2022/10/17 09:48:56;;;;;;;7.05;2.70;;;16.70;99.90;;;;;;4980180;28;20453;-51
2022/10/17 09:51:23;;;;;;;5.80;2.60;;;16.70;99.90;;;;;;4975982;28;20023;-52
2022/10/17 09:54:35;;;;;;;7.35;3.15;;;16.70;99.90;;;;;;4978899;28;20512;-56
2022/10/17 09:57:09;;;;;;;5.18;2.90;;;16.80;99.90;;;;;;4975539;28;20082;-52
2022/10/17 09:59:40;;;;;;;2.58;2.38;;;16.90;99.90;;;;;;4984606;28;20057;-52
2022/10/17 10:02:18;;;;;;;8.48;2.50;;;16.90;99.90;;;;;;4981876;28;20037;-58
2022/10/17 10:04:57;;;;;;;4.15;3.10;;;16.90;99.90;;;;;;4984134;28;20638;-54
2022/10/17 10:07:31;;;;;;;3.17;2.45;;;17.00;99.90;;;;;;4984473;28;20374;-53
2022/10/17 10:09:58;;;;;;;2.20;2.00;;;17.00;99.90;;;;;;4985888;28;20049;-51
2022/10/17 10:12:28;;;;;;;2.92;2.72;;;17.10;99.90;;;;;;4985450;28;20329;-56
2022/10/17 10:14:55;;;;;;;2.90;2.35;;;17.10;99.90;;;;;;4987217;28;20037;-56
2022/10/17 10:17:40;;;;;;;2.90;2.50;;;17.30;99.90;;;;;;4980609;28;20026;-54
2022/10/17 10:20:35;;;;;;;2.50;2.30;;;17.30;99.90;;;;;;4981713;28;20061;-54
2022/10/17 10:23:18;;;;;;;3.78;2.45;;;17.40;99.90;;;;;;4978730;28;20082;-54
2022/10/17 10:25:57;;;;;;;4.57;2.85;;;17.40;99.90;;;;;;4980663;28;20038;-54
2022/10/17 10:28:29;;;;;;;3.65;2.58;;;17.50;99.90;;;;;;4976281;28;20400;-55
2022/10/17 10:30:58;;;;;;;4.20;3.17;;;17.50;99.90;;;;;;4981984;28;20022;-51
2022/10/17 10:33:28;;;;;;;4.43;3.10;;;17.60;99.90;;;;;;4972556;28;20019;-51
2022/10/17 10:36:03;;;;;;;3.83;2.80;;;17.60;99.90;;;;;;4985465;28;20272;-55
2022/10/17 10:38:32;;;;;;;5.07;2.60;;;17.60;99.90;;;;;;4980041;28;20027;-55
2022/10/17 10:41:06;;;;;;;5.22;2.80;;;17.70;99.90;;;;;;4985600;28;20033;-51
2022/10/17 10:43:45;;;;;;;5.40;3.08;;;17.70;99.90;;;;;;4979395;28;20085;-51
2022/10/17 10:46:20;;;;;;;6.82;2.70;;;17.80;99.90;;;;;;4987265;28;20030;-51
2022/10/17 10:49:26;;;;;;;10.00;2.90;;;17.90;99.90;;;;;;4970357;28;20037;-52
2022/10/17 10:51:52;;;;;;;6.80;3.23;;;17.90;99.90;;;;;;4980996;28;20018;-55
2022/10/17 10:54:41;;;;;;;3.92;3.13;;;18.00;99.90;;;;;;4983583;28;20080;-52
2022/10/17 10:57:12;;;;;;;3.72;3.10;;;18.10;99.90;;;;;;4986498;28;20023;-55
2022/10/17 11:00:05;;;;;;;2.90;2.60;;;18.10;99.90;;;;;;4983174;28;20031;-51
2022/10/17 11:02:41;;;;;;;5.03;3.03;;;18.20;99.90;;;;;;4967351;28;20047;-52
2022/10/17 11:05:21;;;;;;;5.80;3.05;;;18.20;99.90;;;;;;4983719;28;20029;-55
2022/10/17 11:08:21;;;;;;;4.82;3.20;;;18.30;99.90;;;;;;4986843;28;20059;-52
2022/10/17 11:11:06;;;;;;;6.80;3.92;;;18.30;99.90;;;;;;4979963;28;20041;-55
2022/10/17 11:13:42;;;;;;;6.18;3.40;;;18.30;99.90;;;;;;4974327;28;20030;-52
2022/10/17 11:16:27;;;;;;;5.63;3.25;;;18.40;99.90;;;;;;4982360;28;20107;-58
2022/10/17 11:19:11;;;;;;;5.03;3.40;;;18.30;99.90;;;;;;4981223;28;20369;-50
2022/10/17 11:21:39;;;;;;;4.63;3.28;;;18.30;99.90;;;;;;4983179;28;20028;-54
2022/10/17 11:24:08;;;;;;;3.15;2.85;;;18.30;99.90;;;;;;4982397;28;20038;-52
2022/10/17 11:26:40;;;;;;;4.22;3.10;;;18.30;99.90;;;;;;4977770;28;20027;-55
2022/10/17 11:29:10;;;;;;;3.10;2.80;;;18.40;99.90;;;;;;4985804;28;20049;-53
2022/10/17 11:31:40;;;;;;;4.20;2.90;;;18.40;99.90;;;;;;4978932;28;20218;-53
2022/10/17 11:34:28;;;;;;;6.35;3.35;;;18.40;99.90;;;;;;4986579;28;20068;-53
2022/10/17 11:37:04;;;;;;;4.20;2.78;;;18.40;99.90;;;;;;4971680;28;20034;-55
2022/10/17 11:40:05;;;;;;;6.10;3.13;;;18.50;99.90;;;;;;4985372;28;20062;-56
2022/10/17 11:42:44;;;;;;;4.53;3.17;;;18.60;99.90;;;;;;4954161;28;20559;-52
2022/10/17 11:45:17;;;;;;;4.47;3.20;;;18.60;99.90;;;;;;4980746;28;20046;-53
2022/10/17 11:47:45;;;;;;;3.47;2.95;;;18.70;99.90;;;;;;4983206;28;20031;-54
2022/10/17 11:50:24;;;;;;;3.63;2.97;;;18.70;99.90;;;;;;4982127;28;20022;-52
2022/10/17 11:53:04;;;;;;;3.35;2.95;;;18.70;99.90;;;;;;4987156;28;20409;-52
2022/10/17 11:55:31;;;;;;;6.72;3.50;;;18.80;99.90;;;;;;4978738;28;20499;-53
2022/10/17 11:58:05;;;;;;;6.72;2.58;;;18.80;99.90;;;;;;4981409;28;20049;-51
2022/10/17 12:00:53;;;;;;;3.83;2.70;;;18.70;99.90;;;;;;4979457;28;20019;-51
2022/10/17 12:03:34;;;;;;;4.40;3.13;;;18.70;99.90;;;;;;4972245;28;20433;-54
2022/10/17 12:06:19;;;;;;;6.53;3.25;;;18.70;99.90;;;;;;4980410;28;20080;-51
2022/10/17 12:08:57;;;;;;;5.60;3.10;;;18.60;99.90;;;;;;4981911;28;20062;-54
2022/10/17 12:11:59;;;;;;;5.60;2.70;;;18.60;99.90;;;;;;4970810;28;20018;-55
2022/10/17 12:14:34;;;;;;;3.60;2.75;;;18.50;99.90;;;;;;4935136;29;20041;-55
2022/10/17 12:17:00;;;;;;;4.00;3.17;;;18.50;99.90;;;;;;4976095;28;20120;-51
2022/10/17 12:19:34;;;;;;;5.18;3.42;;;18.40;99.90;;;;;;4976778;28;20034;-54
2022/10/17 12:22:24;;;;;;;6.97;3.65;;;18.40;99.90;;;;;;4982227;28;20113;-57
2022/10/17 12:25:03;;;;;;;11.45;3.92;;;18.30;99.90;;;;;;4984462;28;20513;-54
2022/10/17 12:27:32;;;;;;;6.18;3.72;;;18.20;99.90;;;;;;4976023;28;20026;-52
2022/10/17 12:30:00;;;;;;;12.93;4.55;;;18.10;99.90;;;;;;4981871;28;20386;-52
2022/10/17 12:32:25;;;;;;;9.65;3.88;;;18.10;99.90;;;;;;4982005;28;20027;-54
2022/10/17 12:34:53;;;;;;;5.55;3.80;;;18.00;99.90;;;;;;4983586;28;20053;-52
2022/10/17 12:37:44;;;;;;;6.32;3.92;;;18.00;99.90;;;;;;4982420;28;20042;-53
2022/10/17 12:40:41;;;;;;;5.47;4.10;;;17.90;99.90;;;;;;4980043;28;20038;-52
2022/10/17 12:43:13;;;;;;;4.70;3.67;;;17.80;99.90;;;;;;4976786;28;20034;-56
2022/10/17 12:45:46;;;;;;;5.53;3.95;;;17.70;99.90;;;;;;4983944;28;20022;-57
2022/10/17 12:48:32;;;;;;;5.63;4.22;;;17.70;99.90;;;;;;4979127;28;20077;-52
2022/10/17 12:51:01;;;;;;;4.25;3.85;;;17.60;99.90;;;;;;4986209;28;20452;-55
2022/10/17 12:53:53;;;;;;;5.35;4.20;;;17.60;99.90;;;;;;4980733;28;20036;-53
2022/10/17 12:56:28;;;;;;;5.05;4.57;;;17.60;99.90;;;;;;4967309;28;20099;-57
2022/10/17 12:58:57;;;;;;;4.70;4.25;;;17.60;99.90;;;;;;4976524;28;20027;-53
2022/10/17 13:01:31;;;;;;;5.88;4.57;;;17.50;99.90;;;;;;4981733;28;20053;-55
2022/10/17 13:04:04;;;;;;;5.55;5.00;;;17.60;99.90;;;;;;4980063;28;20120;-52
2022/10/17 13:06:36;;;;;;;4.93;4.15;;;17.50;99.90;;;;;;4982191;28;20050;-55
2022/10/17 13:09:22;;;;;;;5.57;4.80;;;17.50;99.90;;;;;;4980570;28;20038;-53